Time;durP1;ratioP1;P1;durP2;ratioP2;P2;SDS_P1;SDS_P2;PMS_P1;PMS_P2;Temp;Humidity;BMP_temperature;BMP_pressure;BME280_temperature;BME280_humidity;BME280_pressure;Samples;Min_cycle;Max_cycle;Signal;HPM_P1;HPM_P2
2021/10/29 00:04:15;;;;;;;2.80;1.83;;;17.30;71.20;;;;;;10364673;28;20534;-58
2021/10/29 00:09:15;;;;;;;2.83;2.13;;;17.30;71.10;;;;;;10374283;28;20034;-57
2021/10/29 00:14:16;;;;;;;3.00;2.05;;;17.40;70.80;;;;;;10373952;28;20042;-59
2021/10/29 00:19:17;;;;;;;2.42;1.85;;;17.40;70.60;;;;;;10350480;28;20705;-57
2021/10/29 00:24:18;;;;;;;3.13;2.22;;;17.40;70.60;;;;;;10337102;28;20104;-57
2021/10/29 00:29:20;;;;;;;3.05;1.90;;;17.40;70.60;;;;;;10349599;28;20034;-58
2021/10/29 00:34:21;;;;;;;3.00;2.13;;;17.40;70.60;;;;;;10331787;28;20046;-57
2021/10/29 00:39:22;;;;;;;2.88;2.15;;;17.40;70.60;;;;;;10331154;28;20030;-57
2021/10/29 00:44:27;;;;;;;2.78;2.30;;;17.40;70.70;;;;;;10332787;28;20125;-58
2021/10/29 00:49:27;;;;;;;3.28;2.33;;;17.40;70.70;;;;;;10332216;28;20030;-58
2021/10/29 00:54:28;;;;;;;3.00;1.85;;;17.40;70.70;;;;;;10331973;28;20030;-58
2021/10/29 00:59:29;;;;;;;3.90;2.40;;;17.40;70.80;;;;;;10330497;28;20041;-56
2021/10/29 01:04:30;;;;;;;2.92;2.03;;;17.30;70.90;;;;;;10365297;28;20359;-58
2021/10/29 01:09:31;;;;;;;3.03;2.00;;;17.30;70.80;;;;;;10371445;28;20069;-58
2021/10/29 01:14:32;;;;;;;2.83;1.80;;;17.30;70.90;;;;;;10371937;28;20133;-57
2021/10/29 01:19:33;;;;;;;2.53;1.92;;;17.30;70.90;;;;;;10347698;28;20038;-58
2021/10/29 01:24:34;;;;;;;2.47;1.90;;;17.30;71.30;;;;;;10337020;28;20022;-58
2021/10/29 01:29:36;;;;;;;2.78;1.77;;;17.40;70.60;;;;;;10345435;28;20494;-57
2021/10/29 01:34:38;;;;;;;3.33;2.10;;;17.40;70.50;;;;;;10330404;28;20046;-58
2021/10/29 01:39:39;;;;;;;2.60;2.17;;;17.40;70.50;;;;;;10330451;28;20031;-57
2021/10/29 01:44:41;;;;;;;2.95;1.63;;;17.40;70.50;;;;;;10330402;28;20121;-58
2021/10/29 01:49:42;;;;;;;2.88;1.88;;;17.40;70.60;;;;;;10329376;28;20030;-57
2021/10/29 01:54:43;;;;;;;3.20;2.22;;;17.40;70.60;;;;;;10330215;28;20553;-56
2021/10/29 01:59:44;;;;;;;2.70;2.28;;;17.40;70.70;;;;;;10330008;28;20097;-58
2021/10/29 02:04:45;;;;;;;3.13;2.30;;;17.40;70.70;;;;;;10365546;28;20030;-58
2021/10/29 02:09:45;;;;;;;2.92;2.13;;;17.30;70.60;;;;;;10369653;28;20026;-57
2021/10/29 02:14:46;;;;;;;1.83;1.48;;;17.30;70.60;;;;;;10370349;28;20450;-58
2021/10/29 02:19:47;;;;;;;3.15;2.00;;;17.30;70.60;;;;;;10345020;28;20573;-57
2021/10/29 02:24:47;;;;;;;3.17;1.90;;;17.30;70.60;;;;;;10337189;28;20054;-56
2021/10/29 02:29:48;;;;;;;2.75;2.05;;;17.30;70.50;;;;;;10348614;28;20026;-57
2021/10/29 02:34:49;;;;;;;2.30;1.70;;;17.30;70.60;;;;;;10337518;28;20117;-58
2021/10/29 02:39:50;;;;;;;2.97;2.13;;;17.30;70.60;;;;;;10335683;28;20105;-57
2021/10/29 02:44:50;;;;;;;2.63;1.90;;;17.30;70.50;;;;;;10337246;28;20076;-58
2021/10/29 02:49:51;;;;;;;3.22;2.03;;;17.40;70.40;;;;;;10335639;28;20592;-57
2021/10/29 02:54:52;;;;;;;3.00;2.05;;;17.50;70.00;;;;;;10336906;28;20125;-58
2021/10/29 02:59:52;;;;;;;2.88;2.08;;;17.60;69.70;;;;;;10335495;28;20035;-58
2021/10/29 03:04:53;;;;;;;3.13;2.15;;;17.60;69.60;;;;;;10372963;28;20088;-57
2021/10/29 03:09:54;;;;;;;1.95;1.65;;;17.60;69.70;;;;;;10376630;28;20030;-58
2021/10/29 03:14:55;;;;;;;2.88;1.80;;;17.50;69.80;;;;;;10375337;28;20060;-55
2021/10/29 03:19:55;;;;;;;3.10;1.83;;;17.50;70.00;;;;;;10349392;28;20041;-58
2021/10/29 03:24:56;;;;;;;3.17;1.80;;;17.50;70.10;;;;;;10343260;28;20034;-58
2021/10/29 03:29:57;;;;;;;2.10;1.40;;;17.50;70.10;;;;;;10347221;28;20042;-56
2021/10/29 03:34:59;;;;;;;2.65;1.75;;;17.40;70.20;;;;;;10335470;28;20034;-58
2021/10/29 03:45:20;;;;;;;3.47;2.38;;;17.40;70.30;;;;;;10334918;28;20058;-56
2021/10/29 03:50:24;;;;;;;2.78;1.90;;;17.40;70.40;;;;;;10334627;28;20027;-56
2021/10/29 03:55:33;;;;;;;2.88;2.10;;;17.30;70.40;;;;;;10334434;28;20022;-58
2021/10/29 04:00:34;;;;;;;2.55;1.77;;;17.30;70.50;;;;;;10335775;28;20034;-58
2021/10/29 04:05:36;;;;;;;2.78;2.42;;;17.30;70.50;;;;;;10374380;28;20029;-57
2021/10/29 04:10:41;;;;;;;3.42;2.17;;;17.30;70.60;;;;;;10374461;28;20038;-58
2021/10/29 04:15:42;;;;;;;2.38;1.70;;;17.30;71.20;;;;;;10374199;28;20378;-58
2021/10/29 04:20:43;;;;;;;4.00;2.30;;;17.30;70.50;;;;;;10340233;28;20054;-57
2021/10/29 04:25:43;;;;;;;2.72;2.00;;;17.30;70.30;;;;;;10348469;28;20042;-55
2021/10/29 04:30:45;;;;;;;2.70;2.03;;;17.40;70.30;;;;;;10337402;28;20045;-57
2021/10/29 04:35:50;;;;;;;2.78;1.75;;;17.40;70.30;;;;;;10331822;28;20031;-58
2021/10/29 04:40:51;;;;;;;2.80;2.17;;;17.40;70.30;;;;;;10331475;28;20495;-57
2021/10/29 04:45:51;;;;;;;3.17;2.00;;;17.60;69.70;;;;;;10332409;28;20035;-57
2021/10/29 04:50:52;;;;;;;2.97;2.30;;;17.90;68.80;;;;;;10332572;28;20485;-57
2021/10/29 04:55:53;;;;;;;2.78;2.13;;;18.10;67.80;;;;;;10332503;28;20068;-56
2021/10/29 05:00:54;;;;;;;2.65;2.00;;;18.30;67.30;;;;;;10336332;28;20030;-57
2021/10/29 05:05:55;;;;;;;3.60;2.15;;;18.40;67.00;;;;;;10372263;28;20112;-59
2021/10/29 05:10:55;;;;;;;1.98;1.40;;;18.50;66.70;;;;;;10371823;28;20133;-57
2021/10/29 05:15:56;;;;;;;2.70;1.80;;;18.50;66.60;;;;;;10371783;28;20557;-58
2021/10/29 05:20:57;;;;;;;2.38;1.75;;;18.50;66.70;;;;;;10336510;28;20034;-57
2021/10/29 05:25:58;;;;;;;2.65;2.03;;;18.40;67.00;;;;;;10348485;28;20105;-58
2021/10/29 05:30:58;;;;;;;2.92;1.98;;;18.40;67.00;;;;;;10333688;28;20026;-58
2021/10/29 05:36:00;;;;;;;2.55;1.98;;;18.50;66.90;;;;;;10331030;28;20030;-58
2021/10/29 05:41:01;;;;;;;2.70;1.85;;;18.40;67.00;;;;;;10330690;28;20042;-58
2021/10/29 05:46:02;;;;;;;3.13;1.73;;;18.50;66.80;;;;;;10330249;28;20030;-57
2021/10/29 05:51:09;;;;;;;2.65;1.80;;;18.50;66.90;;;;;;10330574;28;20054;-58
2021/10/29 05:56:10;;;;;;;2.33;1.85;;;18.50;67.10;;;;;;10330101;28;20108;-56
2021/10/29 06:01:10;;;;;;;1.90;1.60;;;18.50;66.90;;;;;;10335980;28;20132;-59
2021/10/29 06:06:11;;;;;;;2.60;1.95;;;18.60;66.90;;;;;;10370699;28;20037;-57
2021/10/29 06:11:12;;;;;;;2.50;1.67;;;18.50;66.80;;;;;;10370099;28;20115;-57
2021/10/29 06:16:13;;;;;;;3.03;1.88;;;18.60;66.60;;;;;;10369764;28;20060;-58
2021/10/29 06:21:16;;;;;;;3.05;1.88;;;18.60;66.70;;;;;;10328973;28;20388;-58
2021/10/29 06:26:22;;;;;;;3.15;1.90;;;18.50;66.90;;;;;;10349378;28;20033;-58
2021/10/29 06:31:22;;;;;;;2.67;1.88;;;18.60;66.70;;;;;;10343341;28;20030;-58
2021/10/29 06:36:23;;;;;;;2.78;1.83;;;18.60;66.60;;;;;;10330139;28;20115;-58
2021/10/29 06:41:24;;;;;;;2.33;1.90;;;18.60;66.80;;;;;;10328657;28;20398;-57
2021/10/29 07:02:47;;;;;;;2.60;1.67;;;18.50;67.10;;;;;;10358016;28;20033;-58
2021/10/29 07:45:04;;;;;;;2.45;1.77;;;18.40;67.40;;;;;;10376949;28;20045;-58
2021/10/29 07:50:09;;;;;;;2.70;1.90;;;18.30;67.60;;;;;;10375673;28;20032;-58
2021/10/29 07:55:12;;;;;;;2.83;1.80;;;18.20;67.80;;;;;;10375772;28;20119;-58
2021/10/29 08:00:16;;;;;;;2.15;1.73;;;18.20;68.10;;;;;;10375426;28;20026;-58
2021/10/29 08:05:18;;;;;;;2.15;1.70;;;18.10;68.20;;;;;;10374929;28;20437;-57
2021/10/29 08:10:19;;;;;;;3.15;2.13;;;18.10;68.40;;;;;;10373490;28;20041;-58
2021/10/29 08:15:19;;;;;;;2.20;1.55;;;18.10;68.50;;;;;;10375167;28;20033;-58
2021/10/29 08:20:21;;;;;;;2.88;1.90;;;18.10;68.70;;;;;;10344325;28;20092;-58
2021/10/29 08:25:23;;;;;;;3.38;1.73;;;18.00;69.10;;;;;;10345794;28;20030;-57
2021/10/29 08:30:24;;;;;;;2.55;1.80;;;18.00;69.70;;;;;;10341831;28;20461;-57
2021/10/29 08:35:25;;;;;;;2.92;2.15;;;17.90;69.90;;;;;;10333989;28;20088;-57
2021/10/29 08:40:26;;;;;;;2.60;1.85;;;17.90;69.60;;;;;;10331672;28;20092;-57
2021/10/29 08:45:27;;;;;;;2.47;1.90;;;18.00;69.50;;;;;;10333091;28;20105;-58
2021/10/29 08:50:28;;;;;;;2.95;1.90;;;18.00;69.50;;;;;;10333271;28;20038;-59
2021/10/29 08:55:32;;;;;;;2.88;1.73;;;18.00;69.60;;;;;;10332678;28;20466;-56
2021/10/29 09:00:41;;;;;;;3.00;2.13;;;18.00;69.60;;;;;;10334109;28;20050;-57
2021/10/29 09:11:19;;;;;;;3.00;1.77;;;17.90;69.60;;;;;;10373206;28;20498;-57
2021/10/29 09:16:56;;;;;;;2.30;1.73;;;18.00;69.70;;;;;;10371335;28;20070;-58
2021/10/29 09:32:28;;;;;;;3.00;2.17;;;18.00;69.70;;;;;;10332253;28;20043;-57
2021/10/29 09:37:36;;;;;;;2.40;1.67;;;18.10;69.70;;;;;;10330499;28;20028;-59
2021/10/29 09:42:39;;;;;;;2.38;1.70;;;18.00;69.60;;;;;;10343073;28;20101;-58
2021/10/29 09:47:46;;;;;;;2.65;1.70;;;18.10;69.60;;;;;;10331175;28;20030;-57
2021/10/29 09:53:12;;;;;;;2.55;1.90;;;18.10;69.60;;;;;;10330237;28;20097;-57
2021/10/29 09:58:15;;;;;;;2.83;1.85;;;18.10;69.70;;;;;;10330682;28;20093;-58
2021/10/29 10:03:22;;;;;;;2.97;1.58;;;18.10;69.60;;;;;;10354448;28;20133;-57
2021/10/29 10:08:26;;;;;;;3.33;1.92;;;18.10;69.70;;;;;;10371373;28;20026;-57
2021/10/29 10:13:28;;;;;;;2.90;2.20;;;18.20;69.70;;;;;;10369654;28;20088;-57
2021/10/29 10:18:29;;;;;;;2.22;1.67;;;18.20;69.70;;;;;;10355522;28;20093;-59
2021/10/29 10:23:34;;;;;;;2.90;2.08;;;18.20;69.60;;;;;;10329290;28;20034;-58
2021/10/29 10:50:23;;;;;;;2.50;1.73;;;18.30;69.50;;;;;;10376723;28;20330;-58
2021/10/29 10:55:53;;;;;;;3.75;2.50;;;18.40;69.50;;;;;;10376789;28;20026;-58
2021/10/29 11:01:12;;;;;;;2.80;1.92;;;18.30;69.50;;;;;;10377338;28;20068;-57
2021/10/29 11:12:10;;;;;;;2.85;2.25;;;18.30;69.70;;;;;;10377421;28;20045;-57
2021/10/29 11:17:11;;;;;;;2.72;2.03;;;18.20;69.80;;;;;;10372475;28;20069;-56
2021/10/29 11:22:13;;;;;;;1.90;1.70;;;18.20;70.00;;;;;;10336166;28;20019;-59
2021/10/29 11:27:18;;;;;;;3.72;2.40;;;18.10;70.00;;;;;;10356145;28;20141;-58
2021/10/29 11:32:25;;;;;;;3.33;2.10;;;18.10;70.00;;;;;;10335928;28;20026;-58
2021/10/29 11:37:30;;;;;;;3.28;2.05;;;18.10;70.00;;;;;;10335812;28;20046;-58
2021/10/29 11:42:31;;;;;;;2.90;2.38;;;18.20;70.10;;;;;;10335474;28;20038;-57
2021/10/29 11:47:32;;;;;;;2.20;1.77;;;18.20;69.90;;;;;;10335397;28;20034;-58
2021/10/29 11:52:34;;;;;;;3.67;2.13;;;18.10;69.80;;;;;;10334212;28;20030;-58
2021/10/29 11:57:47;;;;;;;3.28;2.15;;;18.20;69.80;;;;;;10336872;28;20026;-57
2021/10/29 12:08:10;;;;;;;2.70;1.97;;;18.20;69.90;;;;;;10375283;28;20500;-57
2021/10/29 12:13:11;;;;;;;2.72;2.03;;;18.20;69.80;;;;;;10373862;28;20120;-57
2021/10/29 12:18:13;;;;;;;2.72;1.90;;;18.30;69.80;;;;;;10361564;28;20102;-57
2021/10/29 12:23:24;;;;;;;2.47;1.80;;;18.30;69.80;;;;;;10334080;28;20374;-57
2021/10/29 12:28:28;;;;;;;2.53;1.90;;;18.30;69.70;;;;;;10352200;28;20057;-58
2021/10/29 12:38:48;;;;;;;1.92;1.55;;;18.30;70.00;;;;;;10333766;28;20125;-57
2021/10/29 13:05:12;;;;;;;2.47;1.70;;;18.30;69.90;;;;;;10347553;28;20035;-58
2021/10/29 13:10:13;;;;;;;3.63;2.20;;;18.30;70.00;;;;;;10331920;28;20034;-56
2021/10/29 13:15:16;;;;;;;3.20;2.03;;;18.30;70.00;;;;;;10331931;28;20482;-57
2021/10/29 14:28:47;;;;;;;9.33;2.70;;;18.20;70.40;;;;;;10368054;28;20043;-56
2021/10/29 14:33:53;;;;;;;15.82;3.80;;;18.10;70.30;;;;;;10337651;28;20077;-57
2021/10/29 14:38:59;;;;;;;13.95;3.53;;;18.10;70.30;;;;;;10338797;28;20038;-57
2021/10/29 14:44:07;;;;;;;8.98;3.53;;;18.00;70.30;;;;;;10338050;28;20049;-56
2021/10/29 14:49:24;;;;;;;14.20;3.60;;;18.10;70.40;;;;;;10338394;28;20030;-56
2021/10/29 15:16:00;;;;;;;12.93;4.30;;;18.10;70.60;;;;;;10360234;28;20041;-57
2021/10/29 15:42:10;;;;;;;33.10;6.35;;;18.20;72.10;;;;;;10362059;28;20046;-58
2021/10/29 15:47:21;;;;;;;18.73;5.00;;;18.20;72.20;;;;;;10360970;28;20474;-55
2021/10/29 15:52:22;;;;;;;24.90;4.80;;;18.20;72.80;;;;;;10361393;28;20520;-58
2021/10/29 15:57:28;;;;;;;24.25;5.57;;;18.20;72.50;;;;;;10363777;28;20034;-58
2021/10/29 16:18:10;;;;;;;18.67;4.50;;;18.20;72.70;;;;;;10357054;28;20034;-57
2021/10/29 16:23:11;;;;;;;11.48;3.75;;;18.20;73.30;;;;;;10355737;28;20025;-57
2021/10/29 16:28:13;;;;;;;9.35;3.75;;;18.20;72.60;;;;;;10366316;28;20370;-55
2021/10/29 16:38:24;;;;;;;7.28;3.95;;;18.30;90.60;;;;;;10355828;28;20048;-57
2021/10/29 16:43:26;;;;;;;9.05;3.47;;;18.40;71.30;;;;;;10357922;28;20042;-58
2021/10/29 16:48:26;;;;;;;8.40;3.45;;;18.40;70.60;;;;;;10339649;28;20040;-56
2021/10/29 16:53:27;;;;;;;12.77;4.45;;;18.50;70.70;;;;;;10348813;28;20486;-56
2021/10/29 16:58:28;;;;;;;10.55;3.90;;;18.60;70.80;;;;;;10342242;28;20031;-57
2021/10/29 17:03:29;;;;;;;13.45;3.70;;;18.60;71.40;;;;;;10357213;28;20068;-56
2021/10/29 17:08:30;;;;;;;14.70;4.95;;;18.50;71.10;;;;;;10354044;28;20238;-57
2021/10/29 17:13:31;;;;;;;20.30;4.00;;;18.40;71.80;;;;;;10369899;28;20113;-57
2021/10/29 17:18:32;;;;;;;11.15;3.75;;;18.40;72.40;;;;;;10358050;28;20571;-57
2021/10/29 17:23:32;;;;;;;9.48;3.50;;;18.40;73.10;;;;;;10371767;28;20536;-55
2021/10/29 17:28:33;;;;;;;13.57;5.15;;;18.40;72.70;;;;;;10332644;28;20036;-57
2021/10/29 17:33:34;;;;;;;13.50;3.72;;;18.30;72.90;;;;;;10350354;28;20125;-59
2021/10/29 17:38:36;;;;;;;12.60;3.97;;;18.30;72.80;;;;;;10350792;28;20072;-59
2021/10/29 17:43:37;;;;;;;10.57;4.00;;;18.30;72.80;;;;;;10363271;28;20057;-57
2021/10/29 17:48:38;;;;;;;6.53;3.30;;;18.30;73.10;;;;;;10370767;28;20135;-58
2021/10/29 17:53:38;;;;;;;15.05;4.38;;;18.30;72.80;;;;;;10367477;28;20029;-57
2021/10/29 17:58:39;;;;;;;6.03;3.47;;;18.20;72.60;;;;;;10352970;28;20480;-59
2021/10/29 18:03:43;;;;;;;13.63;4.53;;;18.20;72.70;;;;;;10353538;28;20026;-59
2021/10/29 18:08:53;;;;;;;9.75;3.92;;;18.20;72.60;;;;;;10351243;28;20069;-56
2021/10/29 18:13:53;;;;;;;9.25;3.78;;;18.10;72.70;;;;;;10355879;28;20033;-58
2021/10/29 18:18:56;;;;;;;10.65;3.67;;;18.10;72.70;;;;;;10362410;28;20111;-56
2021/10/29 18:23:57;;;;;;;9.82;3.45;;;18.10;72.90;;;;;;10352241;28;20041;-58
2021/10/29 18:28:59;;;;;;;5.30;2.63;;;18.10;72.90;;;;;;10361296;28;20112;-57
2021/10/29 18:34:01;;;;;;;11.13;3.15;;;18.10;73.10;;;;;;10362444;28;20112;-58
2021/10/29 18:39:03;;;;;;;9.02;3.38;;;18.10;73.10;;;;;;10356937;28;20026;-59
2021/10/29 18:44:06;;;;;;;7.15;3.05;;;18.10;73.10;;;;;;10350897;28;20646;-57
2021/10/29 18:49:08;;;;;;;9.95;3.28;;;18.10;73.20;;;;;;10341584;28;20041;-57
2021/10/29 18:54:09;;;;;;;9.90;2.88;;;18.10;73.30;;;;;;10368214;28;20037;-57
2021/10/29 18:59:10;;;;;;;7.85;2.80;;;18.10;73.20;;;;;;10367796;28;20359;-58
2021/10/29 19:04:11;;;;;;;10.35;3.53;;;18.10;73.30;;;;;;10360060;28;20030;-58
2021/10/29 19:09:12;;;;;;;6.40;3.33;;;18.10;73.40;;;;;;10365701;28;20088;-58
2021/10/29 19:14:14;;;;;;;6.38;2.47;;;18.10;73.40;;;;;;10356143;28;20027;-58
2021/10/29 19:19:16;;;;;;;9.75;2.90;;;18.10;73.40;;;;;;10346335;28;20113;-58
2021/10/29 19:24:17;;;;;;;7.03;2.92;;;18.10;73.60;;;;;;10351341;28;20032;-58
2021/10/29 19:29:18;;;;;;;7.32;3.00;;;18.10;73.50;;;;;;10369701;28;20378;-59
2021/10/29 19:34:25;;;;;;;8.98;2.85;;;18.10;73.60;;;;;;10374594;28;20036;-58
2021/10/29 19:44:35;;;;;;;7.25;2.55;;;18.10;73.70;;;;;;10370844;28;20070;-58
2021/10/29 19:49:37;;;;;;;7.50;2.83;;;18.10;73.70;;;;;;10365725;28;20041;-58
2021/10/29 19:54:38;;;;;;;6.15;2.72;;;18.10;73.70;;;;;;10376849;28;20030;-58
2021/10/29 19:59:39;;;;;;;4.75;2.60;;;18.00;73.30;;;;;;10376644;28;20030;-58
2021/10/29 20:04:40;;;;;;;4.35;2.55;;;18.00;73.20;;;;;;10355052;28;20033;-58
2021/10/29 20:09:41;;;;;;;5.07;2.60;;;18.00;73.30;;;;;;10333616;28;20033;-56
2021/10/29 20:14:42;;;;;;;5.32;2.20;;;18.00;73.30;;;;;;10334011;28;20494;-59
2021/10/29 20:19:42;;;;;;;4.32;2.20;;;17.90;73.30;;;;;;10350768;28;20441;-59
2021/10/29 20:24:43;;;;;;;5.68;2.65;;;17.90;73.30;;;;;;10367341;28;20058;-58
2021/10/29 20:29:44;;;;;;;5.38;2.40;;;17.90;73.30;;;;;;10331065;28;20447;-58
2021/10/29 20:34:44;;;;;;;4.97;2.60;;;17.90;73.20;;;;;;10332640;28;20034;-58
2021/10/29 20:39:45;;;;;;;4.13;1.90;;;17.90;73.20;;;;;;10333662;28;20062;-58
2021/10/29 20:44:46;;;;;;;5.07;2.22;;;17.90;73.20;;;;;;10334315;28;20073;-59
2021/10/29 20:49:46;;;;;;;3.30;2.05;;;17.80;73.10;;;;;;10334263;28;20118;-59
2021/10/29 20:54:49;;;;;;;2.90;1.90;;;17.80;73.10;;;;;;10334195;28;20065;-59
2021/10/29 20:59:49;;;;;;;5.70;2.30;;;17.80;73.10;;;;;;10333808;28;20113;-59
2021/10/29 21:04:51;;;;;;;3.22;2.03;;;17.80;73.10;;;;;;10369867;28;20432;-58
2021/10/29 21:09:54;;;;;;;3.63;2.20;;;17.80;73.10;;;;;;10372910;28;20057;-58
2021/10/29 21:14:54;;;;;;;4.25;2.53;;;17.80;73.10;;;;;;10374037;28;20037;-58
2021/10/29 21:19:55;;;;;;;4.50;2.40;;;17.70;73.00;;;;;;10346523;28;20490;-58
2021/10/29 21:24:57;;;;;;;3.53;2.05;;;17.80;73.10;;;;;;10341689;28;20069;-58
2021/10/29 21:29:57;;;;;;;3.58;1.98;;;17.80;73.10;;;;;;10343801;28;20103;-58
2021/10/29 21:34:58;;;;;;;2.83;2.03;;;17.70;73.00;;;;;;10332763;28;20161;-59
2021/10/29 21:39:59;;;;;;;3.92;2.00;;;17.70;73.00;;;;;;10332424;28;20076;-58
2021/10/29 21:45:00;;;;;;;4.07;1.83;;;17.70;73.00;;;;;;10330911;28;20557;-59
2021/10/29 21:50:02;;;;;;;3.25;1.90;;;17.70;73.00;;;;;;10332182;28;20459;-58
2021/10/29 21:55:04;;;;;;;3.05;1.95;;;17.70;73.00;;;;;;10332304;28;20072;-59
2021/10/29 22:00:17;;;;;;;4.05;1.90;;;17.70;73.00;;;;;;10330735;28;20056;-59
2021/10/29 22:05:17;;;;;;;2.65;1.80;;;17.70;73.00;;;;;;10371506;28;20064;-58
2021/10/29 22:10:18;;;;;;;6.28;2.10;;;17.70;73.00;;;;;;10372394;28;20496;-58
2021/10/29 22:15:20;;;;;;;3.92;2.20;;;17.70;73.00;;;;;;10372241;28;20087;-59
2021/10/29 22:20:21;;;;;;;5.10;2.25;;;17.70;73.00;;;;;;10372073;28;20168;-58
2021/10/29 22:25:22;;;;;;;4.07;2.33;;;17.70;73.00;;;;;;10342124;28;20022;-58
2021/10/29 22:30:23;;;;;;;3.08;1.73;;;17.60;72.90;;;;;;10314076;28;20034;-58
2021/10/29 22:35:24;;;;;;;4.18;2.22;;;17.70;73.00;;;;;;10331569;28;20050;-58
2021/10/29 22:40:25;;;;;;;4.13;2.15;;;17.60;72.90;;;;;;10330901;28;20638;-58
2021/10/29 22:45:26;;;;;;;4.78;2.45;;;17.60;72.90;;;;;;10335484;28;20038;-58
2021/10/29 22:50:27;;;;;;;2.50;1.83;;;17.60;72.90;;;;;;10337752;28;20053;-57
2021/10/29 22:55:28;;;;;;;4.03;1.73;;;17.60;72.90;;;;;;10338808;28;20052;-58
2021/10/29 23:00:29;;;;;;;4.90;1.90;;;17.60;72.90;;;;;;10337958;28;20462;-58
2021/10/29 23:05:29;;;;;;;2.53;1.73;;;17.60;72.90;;;;;;10379026;28;20076;-59
2021/10/29 23:10:30;;;;;;;4.22;2.00;;;17.60;73.50;;;;;;10378849;28;20058;-58
2021/10/29 23:15:31;;;;;;;2.63;1.60;;;17.60;72.90;;;;;;10378740;28;20029;-59
2021/10/29 23:20:32;;;;;;;2.50;1.67;;;17.60;72.90;;;;;;10346637;28;20593;-59
2021/10/29 23:25:33;;;;;;;2.85;1.65;;;17.60;72.90;;;;;;10351425;28;20113;-58
2021/10/29 23:30:34;;;;;;;4.00;2.05;;;17.60;72.90;;;;;;10343893;28;20113;-57
2021/10/29 23:35:34;;;;;;;2.45;1.65;;;17.60;72.90;;;;;;10336157;28;20085;-58
2021/10/29 23:40:37;;;;;;;4.05;2.28;;;17.60;72.80;;;;;;10336872;28;20127;-58
2021/10/29 23:45:38;;;;;;;2.92;1.90;;;17.60;72.80;;;;;;10336669;28;20106;-58
2021/10/29 23:50:39;;;;;;;2.53;1.80;;;17.50;72.80;;;;;;10336820;28;20031;-58
2021/10/29 23:55:39;;;;;;;4.65;1.80;;;17.50;72.70;;;;;;10335348;28;20033;-59
